createdAt,value
2023-06-05T00:00:59.895Z,58.2
2023-06-05T00:02:59.924Z,59.4
2023-06-05T00:04:59.989Z,58.5
2023-06-05T00:07:00.125Z,59.1
2023-06-05T00:08:59.899Z,59.9
2023-06-05T00:10:59.829Z,59.5
2023-06-05T00:12:59.859Z,60.8
2023-06-05T00:14:59.931Z,59.8
2023-06-05T00:16:59.905Z,60.6
2023-06-05T00:18:59.822Z,60.2
2023-06-05T00:20:59.818Z,60.2
2023-06-05T00:22:59.878Z,61.1
2023-06-05T00:25:00.123Z,60.3
2023-06-05T00:27:00.091Z,62.4
2023-06-05T00:28:59.963Z,61.4
2023-06-05T00:30:59.818Z,61.2
2023-06-05T00:32:59.899Z,63.4
2023-06-05T00:34:59.810Z,61.9
2023-06-05T00:37:01.124Z,63.5
2023-06-05T00:38:59.821Z,62.5
2023-06-05T00:40:59.818Z,62.2
2023-06-05T00:42:59.853Z,62.5
2023-06-05T00:44:59.858Z,62.4
2023-06-05T00:46:59.815Z,64.2
2023-06-05T00:48:59.827Z,65.4
2023-06-05T00:50:59.853Z,65.1
2023-06-05T00:52:59.808Z,65.5
2023-06-05T00:54:59.890Z,65.1
2023-06-05T00:56:59.836Z,66.6
2023-06-05T00:58:59.760Z,66.8
2023-06-05T01:00:59.828Z,67.3
2023-06-05T01:02:59.911Z,68.1
2023-06-05T01:04:59.873Z,66.2
2023-06-05T01:06:59.829Z,65.8
2023-06-05T01:09:00.167Z,67.8
2023-06-05T01:10:59.831Z,65.9
2023-06-05T01:12:59.811Z,66.4
2023-06-05T01:14:59.824Z,66.3
2023-06-05T01:16:59.936Z,68.3
2023-06-05T01:18:59.768Z,67.8
2023-06-05T01:20:59.761Z,68.6
2023-06-05T01:22:59.782Z,69.2
2023-06-05T01:24:59.743Z,67.8
2023-06-05T01:26:59.973Z,69.5
2023-06-05T01:28:59.786Z,69.2
2023-06-05T01:30:59.796Z,70
2023-06-05T01:33:01.275Z,70.2
2023-06-05T01:34:59.735Z,69.6
2023-06-05T01:36:59.798Z,70.9
2023-06-05T01:38:59.746Z,70.4
2023-06-05T01:40:59.752Z,70.9
2023-06-05T01:42:59.748Z,71.3
2023-06-05T01:44:59.763Z,70.1
2023-06-05T01:46:59.941Z,70.3
2023-06-05T01:48:59.718Z,69
2023-06-05T01:50:59.882Z,69
2023-06-05T01:52:59.711Z,69.9
2023-06-05T01:54:59.770Z,68.4
2023-06-05T01:56:59.758Z,70.3
2023-06-05T01:58:59.669Z,70.9
2023-06-05T02:00:59.693Z,71.6
2023-06-05T02:02:59.816Z,71.9
2023-06-05T02:04:59.748Z,70.1
2023-06-05T02:06:59.729Z,70.7
2023-06-05T02:09:07.397Z,71.5
2023-06-05T02:10:59.798Z,71.9
2023-06-05T02:12:59.847Z,71.8
2023-06-05T02:14:59.732Z,71.1
2023-06-05T02:16:59.771Z,71.5
2023-06-05T02:18:59.762Z,72.3
2023-06-05T02:20:59.755Z,72.4
2023-06-05T02:22:59.779Z,72.5
2023-06-05T02:24:59.711Z,70.7
2023-06-05T02:26:59.767Z,72.3
2023-06-05T02:28:59.830Z,72.5
2023-06-05T02:30:59.739Z,73.5
2023-06-05T02:32:59.755Z,73.9
2023-06-05T02:34:59.723Z,73.6
2023-06-05T02:36:59.754Z,74.4
2023-06-05T02:38:59.767Z,74.2
2023-06-05T02:40:59.682Z,73.9
2023-06-05T02:42:59.906Z,74.2
2023-06-05T02:45:00.944Z,73.9
2023-06-05T02:46:59.709Z,74.6
2023-06-05T02:49:00.826Z,74.7
2023-06-05T02:50:59.722Z,75
2023-06-05T02:52:59.711Z,75.3
2023-06-05T02:54:59.701Z,75.1
2023-06-05T02:56:59.649Z,75.5
2023-06-05T02:58:59.674Z,76
2023-06-05T03:00:59.712Z,75.8
2023-06-05T03:02:59.872Z,76.2
2023-06-05T03:04:59.660Z,75.3
2023-06-05T03:06:59.658Z,74.6
2023-06-05T03:08:59.659Z,75
2023-06-05T03:11:02.146Z,74
2023-06-05T03:12:59.671Z,73.2
2023-06-05T03:14:59.661Z,73.9
2023-06-05T03:16:59.686Z,72.8
2023-06-05T03:18:59.610Z,73.2
2023-06-05T03:20:59.723Z,75
2023-06-05T03:22:59.615Z,75.5
2023-06-05T03:24:59.602Z,75.4
2023-06-05T03:26:59.746Z,75.8
2023-06-05T03:28:59.636Z,76
2023-06-05T03:30:59.623Z,75.9
2023-06-05T03:32:59.844Z,75.3
2023-06-05T03:34:59.688Z,74.9
2023-06-05T03:36:59.650Z,74.1
2023-06-05T03:38:59.627Z,74
2023-06-05T03:40:59.573Z,73.9
2023-06-05T03:42:59.581Z,73.8
2023-06-05T03:44:59.692Z,73
2023-06-05T03:46:59.603Z,73.3
2023-06-05T03:48:59.596Z,75
2023-06-05T03:50:59.583Z,75.3
2023-06-05T03:52:59.586Z,74.8
2023-06-05T03:54:59.649Z,74.1
2023-06-05T03:56:59.621Z,75.5
2023-06-05T03:58:59.572Z,76.1
2023-06-05T04:00:59.598Z,76.4
2023-06-05T04:02:59.633Z,76.3
2023-06-05T04:04:59.573Z,75.6
2023-06-05T04:06:59.573Z,74.5
2023-06-05T04:08:59.613Z,75.8
2023-06-05T04:10:59.660Z,76.1
2023-06-05T04:12:59.681Z,76.9
2023-06-05T04:16:59.612Z,75
2023-06-05T04:18:59.577Z,75
2023-06-05T04:20:59.571Z,76
2023-06-05T04:22:59.538Z,76.7
2023-06-05T04:24:59.570Z,76.1
2023-06-05T04:26:59.566Z,74.8
2023-06-05T04:28:59.547Z,74.5
2023-06-05T04:31:00.811Z,74.8
2023-06-05T04:33:00.191Z,76
2023-06-05T04:34:59.571Z,75.4
2023-06-05T04:36:59.598Z,74.3
2023-06-05T04:38:59.579Z,75.3
2023-06-05T04:40:59.602Z,76.1
2023-06-05T04:42:59.539Z,76.4
2023-06-05T04:44:59.523Z,76.8
2023-06-05T04:46:59.537Z,76.4
2023-06-05T04:48:59.872Z,76.1
2023-06-05T04:50:59.510Z,77
2023-06-05T04:52:59.523Z,77.5
2023-06-05T04:54:59.547Z,76.2
2023-06-05T04:56:59.490Z,75.1
2023-06-05T04:58:59.593Z,74.8
2023-06-05T05:00:59.550Z,75.9
2023-06-05T05:02:59.621Z,77.2
2023-06-05T05:04:59.532Z,77.8
2023-06-05T05:06:59.529Z,77.7
2023-06-05T05:08:59.993Z,77.9
2023-06-05T05:10:59.522Z,78
2023-06-05T05:12:59.561Z,77.9
2023-06-05T05:14:59.497Z,76.8
2023-06-05T05:16:59.505Z,75.9
2023-06-05T05:18:59.535Z,75.9
2023-06-05T05:20:59.479Z,77.3
2023-06-05T05:23:05.285Z,77.7
2023-06-05T05:24:59.461Z,77.9
2023-06-05T05:26:59.797Z,76.3
2023-06-05T05:28:59.479Z,76.8
2023-06-05T05:30:59.495Z,76
2023-06-05T05:32:59.482Z,75.6
2023-06-05T05:34:59.735Z,75.3
2023-06-05T05:36:59.480Z,74.9
2023-06-05T05:38:59.449Z,75.2
2023-06-05T05:40:59.455Z,76.7
2023-06-05T05:42:59.609Z,77.1
2023-06-05T05:44:59.436Z,76.3
2023-06-05T05:46:59.457Z,75.5
2023-06-05T05:48:59.573Z,76.8
2023-06-05T05:50:59.435Z,76.5
2023-06-05T05:52:59.478Z,76.2
2023-06-05T05:54:59.420Z,76.7
2023-06-05T05:56:59.414Z,76.8
2023-06-05T05:58:59.469Z,77.5
2023-06-05T06:00:59.448Z,76.6
2023-06-05T06:02:59.432Z,76.3
2023-06-05T06:04:59.448Z,77.1
2023-06-05T06:06:59.508Z,77.4
2023-06-05T06:08:59.589Z,77.8
2023-06-05T06:11:00.957Z,76.7
2023-06-05T06:12:59.423Z,76
2023-06-05T06:14:59.404Z,76.2
2023-06-05T06:16:59.425Z,77.4
2023-06-05T06:19:00.819Z,77.9
2023-06-05T06:20:59.466Z,76.7
2023-06-05T06:22:59.461Z,76.1
2023-06-05T06:24:59.387Z,76.5
2023-06-05T06:26:59.387Z,76.5
2023-06-05T06:28:59.408Z,76.2
2023-06-05T06:30:59.410Z,75.8
2023-06-05T06:32:59.388Z,75.7
2023-06-05T06:34:59.390Z,75.9
2023-06-05T06:36:59.386Z,75.9
2023-06-05T06:38:59.436Z,76.6
2023-06-05T06:41:00.452Z,76.8
2023-06-05T06:42:59.407Z,76.3
2023-06-05T06:44:59.441Z,75.9
2023-06-05T06:46:59.416Z,75.4
2023-06-05T06:48:59.483Z,75.7
2023-06-05T06:50:59.383Z,76.1
2023-06-05T06:52:59.399Z,76.5
2023-06-05T06:54:59.380Z,75.9
2023-06-05T06:56:59.408Z,75.4
2023-06-05T06:58:59.399Z,75.4
2023-06-05T07:00:59.419Z,75.2
2023-06-05T07:02:59.448Z,75.9
2023-06-05T07:04:59.471Z,76.1
2023-06-05T07:06:59.366Z,75.4
2023-06-05T07:08:59.352Z,75.8
2023-06-05T07:10:59.336Z,76.3
2023-06-05T07:12:59.350Z,77.2
2023-06-05T07:14:59.454Z,77.4
2023-06-05T07:17:00.717Z,77.1
2023-06-05T07:18:59.337Z,76.7
2023-06-05T07:20:59.334Z,76.2
2023-06-05T07:22:59.408Z,75.8
2023-06-05T07:24:59.397Z,76.6
2023-06-05T07:26:59.341Z,76.2
2023-06-05T07:28:59.322Z,77.5
2023-06-05T07:30:59.341Z,76.4
2023-06-05T07:32:59.392Z,76.2
2023-06-05T07:34:59.325Z,75.9
2023-06-05T07:36:59.360Z,75.6
2023-06-05T07:38:59.453Z,75.7
2023-06-05T07:40:59.347Z,75.5
2023-06-05T07:42:59.320Z,75.6
2023-06-05T07:44:59.341Z,76.5
2023-06-05T07:46:59.405Z,75.6
2023-06-05T07:48:59.346Z,75.6
2023-06-05T07:50:59.312Z,75.5
2023-06-05T07:52:59.331Z,75.5
2023-06-05T07:54:59.311Z,75.4
2023-06-05T07:56:59.334Z,75.3
2023-06-05T07:58:59.366Z,75.4
2023-06-05T08:00:59.358Z,75.4
2023-06-05T08:02:59.366Z,77.3
2023-06-05T08:04:59.305Z,77.7
2023-06-05T08:06:59.292Z,77.2
2023-06-05T08:08:59.278Z,76.6
2023-06-05T08:10:59.316Z,76.2
2023-06-05T08:12:59.270Z,76.9
2023-06-05T08:14:59.324Z,76.2
2023-06-05T08:16:59.395Z,76.2
2023-06-05T08:18:59.258Z,75.9
2023-06-05T08:20:59.271Z,75.7
2023-06-05T08:22:59.258Z,75.7
2023-06-05T08:24:59.286Z,75.7
2023-06-05T08:26:59.281Z,75.5
2023-06-05T08:28:59.246Z,75.5
2023-06-05T08:30:59.229Z,76
2023-06-05T08:32:59.326Z,76.2
2023-06-05T08:34:59.243Z,75.7
2023-06-05T08:36:59.364Z,75.5
2023-06-05T08:38:59.269Z,75.6
2023-06-05T08:40:59.453Z,76.3
2023-06-05T08:42:59.342Z,76.1
2023-06-05T08:45:03.024Z,75.9
2023-06-05T08:46:59.286Z,75.8
2023-06-05T08:48:59.380Z,76.9
2023-06-05T08:50:59.247Z,77.7
2023-06-05T08:52:59.231Z,76.7
2023-06-05T08:54:59.245Z,76.4
2023-06-05T08:56:59.225Z,76
2023-06-05T08:58:59.238Z,76
2023-06-05T09:00:59.249Z,76.2
2023-06-05T09:02:59.292Z,76.8
2023-06-05T09:04:59.278Z,76.4
2023-06-05T09:06:59.207Z,75.9
2023-06-05T09:08:59.196Z,75.9
2023-06-05T09:10:59.204Z,76
2023-06-05T09:12:59.252Z,75.8
2023-06-05T09:14:59.371Z,75.9
2023-06-05T09:16:59.199Z,75.8
2023-06-05T09:18:59.274Z,75.7
2023-06-05T09:20:59.269Z,76.5
2023-06-05T09:22:59.173Z,76
2023-06-05T09:24:59.187Z,76.1
2023-06-05T09:26:59.190Z,75.7
2023-06-05T09:28:59.172Z,75.8
2023-06-05T09:30:59.239Z,75.8
2023-06-05T09:33:00.586Z,76.7
2023-06-05T09:34:59.238Z,76.4
2023-06-05T09:36:59.244Z,76.4
2023-06-05T09:38:59.463Z,76.6
2023-06-05T09:40:59.176Z,77.5
2023-06-05T09:42:59.328Z,77.2
2023-06-05T09:44:59.200Z,76.5
2023-06-05T09:46:59.381Z,76
2023-06-05T09:49:03.834Z,76
2023-06-05T09:50:59.489Z,75.9
2023-06-05T09:52:59.387Z,75.9
2023-06-05T09:54:59.155Z,75.9
2023-06-05T09:56:59.393Z,75.9
2023-06-05T09:59:00.572Z,75.8
2023-06-05T10:00:59.295Z,75.8
2023-06-05T10:02:59.191Z,76
2023-06-05T10:04:59.250Z,75.9
2023-06-05T10:06:59.152Z,75.7
2023-06-05T10:08:59.204Z,76.2
2023-06-05T10:10:59.134Z,75.7
2023-06-05T10:12:59.211Z,76.4
2023-06-05T10:14:59.500Z,76.2
2023-06-05T10:16:59.164Z,75.7
2023-06-05T10:18:59.342Z,77
2023-06-05T10:20:59.165Z,76.5
2023-06-05T10:22:59.268Z,77.5
2023-06-05T10:24:59.145Z,77.1
2023-06-05T10:26:59.166Z,76.3
2023-06-05T10:28:59.245Z,76.1
2023-06-05T10:30:59.269Z,75.9
2023-06-05T10:32:59.252Z,75.7
2023-06-05T10:34:59.263Z,75.8
2023-06-05T10:36:59.117Z,75.6
2023-06-05T10:39:00.441Z,75.6
2023-06-05T10:40:59.110Z,76.1
2023-06-05T10:42:59.156Z,75.7
2023-06-05T10:44:59.244Z,76.9
2023-06-05T10:46:59.161Z,76.4
2023-06-05T10:49:00.208Z,77.7
2023-06-05T10:50:59.144Z,78.4
2023-06-05T10:52:59.236Z,78.5
2023-06-05T10:54:59.111Z,78.3
2023-06-05T10:56:59.243Z,76.9
2023-06-05T10:58:59.237Z,76.5
2023-06-05T11:00:59.074Z,76.6
2023-06-05T11:03:01.545Z,76.4
2023-06-05T11:04:59.132Z,76.8
2023-06-05T11:06:59.066Z,77.3
2023-06-05T11:08:59.126Z,77.6
2023-06-05T11:10:59.173Z,77.4
2023-06-05T11:13:00.310Z,77.6
2023-06-05T11:14:59.154Z,77.1
2023-06-05T11:16:59.218Z,77.2
2023-06-05T11:18:59.234Z,77.9
2023-06-05T11:20:59.117Z,77.4
2023-06-05T11:22:59.062Z,77.3
2023-06-05T11:24:59.049Z,77.3
2023-06-05T11:26:59.161Z,76.4
2023-06-05T11:28:59.178Z,76.5
2023-06-05T11:30:59.210Z,77
2023-06-05T11:32:59.131Z,77.5
2023-06-05T11:34:59.065Z,77.3
2023-06-05T11:36:59.069Z,77.2
2023-06-05T11:38:59.021Z,76.9
2023-06-05T11:41:00.686Z,77.3
2023-06-05T11:43:00.379Z,76.7
2023-06-05T11:44:59.200Z,76.6
2023-06-05T11:46:59.339Z,75.9
2023-06-05T11:48:59.130Z,76
2023-06-05T11:50:59.121Z,75.8
2023-06-05T11:52:59.097Z,75.8
2023-06-05T11:54:59.062Z,77
2023-06-05T11:56:59.020Z,76.1
2023-06-05T11:58:59.196Z,75.9
2023-06-05T12:00:59.162Z,75.4
2023-06-05T12:02:59.041Z,74.9
2023-06-05T12:04:59.157Z,74.7
2023-06-05T12:06:59.027Z,73.7
2023-06-05T12:08:59.049Z,73.9
2023-06-05T12:10:59.160Z,73.2
2023-06-05T12:12:59.115Z,73.5
2023-06-05T12:14:59.103Z,72.8
2023-06-05T12:17:01.403Z,72.2
2023-06-05T12:19:13.222Z,72.6
2023-06-05T12:20:59.155Z,72.2
2023-06-05T12:22:59.000Z,71.9
2023-06-05T12:25:09.383Z,72.2
2023-06-05T12:26:59.199Z,71
2023-06-05T12:29:01.609Z,70.8
2023-06-05T12:30:59.106Z,71.2
2023-06-05T12:32:59.032Z,70.7
2023-06-05T12:35:01.935Z,70.6
2023-06-05T12:36:59.117Z,70.1
2023-06-05T12:39:00.135Z,69.9
2023-06-05T12:41:04.947Z,69.5
2023-06-05T12:42:59.009Z,69.3
2023-06-05T12:44:58.995Z,69.3
2023-06-05T12:46:59.027Z,68.8
2023-06-05T12:48:59.175Z,65.8
2023-06-05T12:50:59.000Z,67.3
2023-06-05T12:52:58.950Z,67.8
2023-06-05T12:54:58.976Z,67.7
2023-06-05T12:57:00.129Z,66.4
2023-06-05T12:58:59.131Z,66.8
2023-06-05T13:00:59.009Z,66.8
2023-06-05T13:02:59.059Z,66.2
2023-06-05T13:04:59.028Z,66
2023-06-05T13:07:00.088Z,63.6
2023-06-05T13:09:00.089Z,63.9
2023-06-05T13:11:04.591Z,61.5
2023-06-05T13:12:58.961Z,62.2
2023-06-05T13:14:59.056Z,62.7
2023-06-05T13:17:00.390Z,62.4
2023-06-05T13:18:59.080Z,59.3
2023-06-05T13:21:01.681Z,58.9
2023-06-05T13:22:58.928Z,59.8
2023-06-05T13:24:58.935Z,60.6
2023-06-05T13:26:58.968Z,60.7
2023-06-05T13:28:59.021Z,60.9
2023-06-05T13:30:58.991Z,59.3
2023-06-05T13:32:59.026Z,57.4
2023-06-05T13:34:58.886Z,58.7
2023-06-05T13:37:02.581Z,59
2023-06-05T13:38:59.046Z,59.9
2023-06-05T13:40:59.022Z,58.5
2023-06-05T13:42:58.906Z,58.7
2023-06-05T13:44:58.906Z,59.2
2023-06-05T13:47:00.361Z,59.1
2023-06-05T13:49:00.206Z,58.3
2023-06-05T13:50:59.006Z,58.9
2023-06-05T13:52:58.903Z,58
2023-06-05T13:55:03.316Z,57.6
2023-06-05T13:56:59.032Z,58.8
2023-06-05T13:58:58.966Z,58.2
2023-06-05T14:00:58.919Z,59.2
2023-06-05T14:02:58.969Z,59.2
2023-06-05T14:04:58.870Z,59.5
2023-06-05T14:07:00.261Z,59.3
2023-06-05T14:08:58.946Z,59.5
2023-06-05T14:10:58.965Z,58.6
2023-06-05T14:12:58.940Z,58.8
2023-06-05T14:14:58.917Z,59.1
2023-06-05T14:16:58.957Z,58
2023-06-05T14:18:58.961Z,59
2023-06-05T14:20:59.017Z,60.6
2023-06-05T14:22:58.930Z,59.7
2023-06-05T14:24:58.900Z,60.8
2023-06-05T14:26:58.870Z,61.8
2023-06-05T14:28:58.887Z,60.3
2023-06-05T14:31:00.447Z,59.3
2023-06-05T14:32:58.965Z,59.2
2023-06-05T14:35:01.688Z,59.4
2023-06-05T14:36:58.983Z,60.6
2023-06-05T14:38:58.865Z,60.1
2023-06-05T14:41:00.281Z,60.7
2023-06-05T14:42:58.910Z,59.8
2023-06-05T14:44:58.848Z,59.4
2023-06-05T14:46:58.863Z,59.1
2023-06-05T14:48:58.841Z,59.5
2023-06-05T14:50:58.876Z,58.4
2023-06-05T14:53:06.383Z,57.9
2023-06-05T14:55:05.145Z,59
2023-06-05T14:56:58.845Z,59.9
2023-06-05T14:58:58.962Z,59.5
2023-06-05T15:00:59.560Z,59.2
2023-06-05T15:02:58.945Z,60
2023-06-05T15:05:00.458Z,59.7
2023-06-05T15:06:58.875Z,59.6
2023-06-05T15:08:58.863Z,60.3
2023-06-05T15:10:58.848Z,59.7
2023-06-05T15:12:58.847Z,59
2023-06-05T15:15:11.005Z,57.5
2023-06-05T15:16:58.874Z,58.4
2023-06-05T15:18:58.848Z,56.9
2023-06-05T15:20:58.916Z,57.4
2023-06-05T15:23:14.550Z,57.3
2023-06-05T15:25:00.143Z,58.7
2023-06-05T15:26:58.769Z,58.6
2023-06-05T15:28:58.829Z,60.1
2023-06-05T15:30:58.816Z,60.1
2023-06-05T15:32:58.875Z,59.6
2023-06-05T15:34:58.920Z,59.4
2023-06-05T15:36:58.909Z,57.8
2023-06-05T15:38:58.781Z,58.5
2023-06-05T15:40:58.738Z,58.2
2023-06-05T15:42:58.817Z,57.8
2023-06-05T15:45:03.411Z,55.4
2023-06-05T15:46:58.837Z,53.9
2023-06-05T15:49:03.080Z,53.3
2023-06-05T15:50:58.830Z,53.9
2023-06-05T15:52:58.802Z,54.6
2023-06-05T15:55:01.311Z,53.3
2023-06-05T15:56:58.841Z,52.7
2023-06-05T15:58:59.871Z,50.5
2023-06-05T16:00:58.775Z,51.6
2023-06-05T16:02:58.964Z,51.8
2023-06-05T16:04:58.819Z,51
2023-06-05T16:06:58.866Z,51.6
2023-06-05T16:08:58.830Z,52.6
2023-06-05T16:10:58.744Z,51.9
2023-06-05T16:12:58.774Z,50.4
2023-06-05T16:14:58.729Z,50.7
2023-06-05T16:16:58.786Z,49.6
2023-06-05T16:18:58.726Z,49.6
2023-06-05T16:20:58.964Z,51.6
2023-06-05T16:22:58.784Z,52.6
2023-06-05T16:24:58.762Z,51.5
2023-06-05T16:26:58.767Z,50
2023-06-05T16:28:58.722Z,50.5
2023-06-05T16:30:58.713Z,50.3
2023-06-05T16:32:58.829Z,51.6
2023-06-05T16:35:00.220Z,51
2023-06-05T16:37:00.397Z,49.5
2023-06-05T16:38:58.817Z,49.1
2023-06-05T16:40:58.776Z,50
2023-06-05T16:42:58.710Z,47.4
2023-06-05T16:44:58.837Z,47.9
2023-06-05T16:46:58.819Z,47.6
2023-06-05T16:48:58.830Z,48.3
2023-06-05T16:50:58.753Z,49.8
2023-06-05T16:53:00.050Z,49
2023-06-05T16:54:58.752Z,49.1
2023-06-05T16:56:58.901Z,50.1
2023-06-05T16:58:58.722Z,49.3
2023-06-05T17:00:58.721Z,50.5
2023-06-05T17:02:58.784Z,47.7
2023-06-05T17:04:58.988Z,48.3
2023-06-05T17:06:58.721Z,48.8
2023-06-05T17:08:58.681Z,49.8
2023-06-05T17:10:58.792Z,49.3
2023-06-05T17:12:58.681Z,51.3
2023-06-05T17:15:00.168Z,49.7
2023-06-05T17:16:58.837Z,48.9
2023-06-05T17:18:58.813Z,47.5
2023-06-05T17:20:58.702Z,48.4
2023-06-05T17:23:00.085Z,49.9
2023-06-05T17:25:10.497Z,44.5
2023-06-05T17:26:58.748Z,44.9
2023-06-05T17:29:00.472Z,46.3
2023-06-05T17:30:58.755Z,45.6
2023-06-05T17:32:58.706Z,45.8
2023-06-05T17:34:58.672Z,45.6
2023-06-05T17:36:58.712Z,44.6
2023-06-05T17:38:58.675Z,42.8
2023-06-05T17:40:58.728Z,43.5
2023-06-05T17:42:58.659Z,42.9
2023-06-05T17:44:58.704Z,43.4
2023-06-05T17:46:58.827Z,42.2
2023-06-05T17:48:58.859Z,42.2
2023-06-05T17:50:59.986Z,41.6
2023-06-05T17:52:58.840Z,40.9
2023-06-05T17:54:58.748Z,40.9
2023-06-05T17:56:58.787Z,40.9
2023-06-05T17:58:58.797Z,40.3
2023-06-05T18:00:59.138Z,38.7
2023-06-05T18:02:58.943Z,38.3
2023-06-05T18:04:58.820Z,37.2
2023-06-05T18:06:58.671Z,38.8
2023-06-05T18:08:58.762Z,39.7
2023-06-05T18:11:00.023Z,39.8
2023-06-05T18:12:58.618Z,38.5
2023-06-05T18:14:58.706Z,36.8
2023-06-05T18:16:58.719Z,36.1
2023-06-05T18:18:58.609Z,37.3
2023-06-05T18:20:58.623Z,37.5
2023-06-05T18:22:58.592Z,37.3
2023-06-05T18:25:00.070Z,37.9
2023-06-05T18:26:58.625Z,39.5
2023-06-05T18:28:58.611Z,36.3
2023-06-05T18:30:58.738Z,34.9
2023-06-05T18:32:58.926Z,35
2023-06-05T18:34:58.720Z,36.2
2023-06-05T18:36:58.622Z,37.6
2023-06-05T18:38:58.626Z,37.4
2023-06-05T18:40:58.588Z,37.1
2023-06-05T18:42:58.599Z,37.3
2023-06-05T18:45:00.020Z,37.6
2023-06-05T18:46:58.592Z,36
2023-06-05T18:48:58.733Z,36.6
2023-06-05T18:50:58.704Z,37.9
2023-06-05T18:52:58.590Z,40.3
2023-06-05T18:54:58.630Z,38.6
2023-06-05T18:56:58.656Z,38.7
2023-06-05T18:59:02.053Z,38
2023-06-05T19:00:58.646Z,38.4
2023-06-05T19:02:58.814Z,39
2023-06-05T19:04:58.704Z,39.6
2023-06-05T19:06:58.569Z,39.8
2023-06-05T19:08:58.659Z,38.9
2023-06-05T19:10:58.601Z,39.8
2023-06-05T19:12:58.664Z,40.6
2023-06-05T19:14:58.600Z,40.2
2023-06-05T19:16:58.691Z,40
2023-06-05T19:18:58.667Z,39
2023-06-05T19:20:58.596Z,39.7
2023-06-05T19:22:58.602Z,40.5
2023-06-05T19:24:58.665Z,41.9
2023-06-05T19:26:58.641Z,41.5
2023-06-05T19:28:58.544Z,41.4
2023-06-05T19:30:59.033Z,44.3
2023-06-05T19:32:58.688Z,46.5
2023-06-05T19:35:03.100Z,44.3
2023-06-05T19:36:58.627Z,42.9
2023-06-05T19:38:58.614Z,42.6
2023-06-05T19:40:58.599Z,42.9
2023-06-05T19:42:58.703Z,43.3
2023-06-05T19:44:59.778Z,45.3
2023-06-05T19:46:59.904Z,45.7
2023-06-05T19:48:58.666Z,46.1
2023-06-05T19:50:59.879Z,47.4
2023-06-05T19:52:58.576Z,47.9
2023-06-05T19:54:58.581Z,47.1
2023-06-05T19:56:58.581Z,46.8
2023-06-05T19:58:58.524Z,46
2023-06-05T20:01:04.311Z,46.3
2023-06-05T20:02:58.699Z,44.3
2023-06-05T20:04:59.552Z,44.8
2023-06-05T20:06:58.668Z,44.6
2023-06-05T20:08:59.798Z,45.3
2023-06-05T20:10:58.520Z,46
2023-06-05T20:12:58.564Z,46.8
2023-06-05T20:14:58.799Z,46.2
2023-06-05T20:17:09.140Z,45.4
2023-06-05T20:18:58.498Z,46
2023-06-05T20:20:59.657Z,46.5
2023-06-05T20:22:58.526Z,45.1
2023-06-05T20:24:58.549Z,45.5
2023-06-05T20:26:58.546Z,45.4
2023-06-05T20:28:58.525Z,44.4
2023-06-05T20:30:58.684Z,45.4
2023-06-05T20:32:58.522Z,45.2
2023-06-05T20:34:58.554Z,44.8
2023-06-05T20:36:58.567Z,44.9
2023-06-05T20:38:58.646Z,45.3
2023-06-05T20:40:59.723Z,45.5
2023-06-05T20:42:58.568Z,45.8
2023-06-05T20:44:58.495Z,45.7
2023-06-05T20:46:58.562Z,45.9
2023-06-05T20:48:58.482Z,45.3
2023-06-05T20:50:58.525Z,45.2
2023-06-05T20:52:58.544Z,44.9
2023-06-05T20:54:58.650Z,45.1
2023-06-05T20:56:58.471Z,45.4
2023-06-05T20:58:59.852Z,45.9
2023-06-05T21:00:58.589Z,44.9
2023-06-05T21:02:58.731Z,45.4
2023-06-05T21:04:58.483Z,44.9
2023-06-05T21:06:58.486Z,45.5
2023-06-05T21:08:58.419Z,44.7
2023-06-05T21:10:58.437Z,45.7
2023-06-05T21:12:59.626Z,45.7
2023-06-05T21:14:58.457Z,45.3
2023-06-05T21:16:58.512Z,45.5
2023-06-05T21:18:58.472Z,45.2
2023-06-05T21:20:58.560Z,44.4
2023-06-05T21:22:58.517Z,45.6
2023-06-05T21:24:58.414Z,45.1
2023-06-05T21:26:58.462Z,44.1
2023-06-05T21:28:58.404Z,45.1
2023-06-05T21:30:59.680Z,45.1
2023-06-05T21:32:58.429Z,44.4
2023-06-05T21:34:58.542Z,44.5
2023-06-05T21:36:58.525Z,45
2023-06-05T21:38:58.407Z,45
2023-06-05T21:40:58.500Z,45.8
2023-06-05T21:42:58.547Z,45.6
2023-06-05T21:44:58.425Z,45.6
2023-06-05T21:46:58.405Z,45.7
2023-06-05T21:48:58.481Z,46.3
2023-06-05T21:50:58.404Z,46.2
2023-06-05T21:52:58.409Z,45.8
2023-06-05T21:54:58.547Z,47.5
2023-06-05T21:56:58.449Z,47.3
2023-06-05T21:58:59.657Z,49
2023-06-05T22:00:58.408Z,49.5
2023-06-05T22:02:58.442Z,50.7
2023-06-05T22:04:58.533Z,51.2
2023-06-05T22:06:58.561Z,51.6
2023-06-05T22:09:03.205Z,51.9
2023-06-05T22:10:59.993Z,53.5
2023-06-05T22:12:58.430Z,52.9
2023-06-05T22:14:58.507Z,52.5
2023-06-05T22:16:58.562Z,51.8
2023-06-05T22:19:08.989Z,48.8
2023-06-05T22:20:58.462Z,44.6
2023-06-05T22:22:58.664Z,43.7
2023-06-05T22:25:01.013Z,43
2023-06-05T22:26:58.493Z,43.1
2023-06-05T22:28:58.750Z,43.6
2023-06-05T22:31:00.004Z,45.3
2023-06-05T22:32:59.952Z,46.3
2023-06-05T22:34:58.416Z,46.1
2023-06-05T22:36:58.455Z,46.7
2023-06-05T22:38:58.516Z,46.1
2023-06-05T22:40:58.405Z,47.2
2023-06-05T22:43:00.980Z,47.1
2023-06-05T22:44:59.491Z,47.5
2023-06-05T22:46:58.425Z,48.2
2023-06-05T22:48:58.556Z,48.3
2023-06-05T22:50:58.319Z,48.5
2023-06-05T22:52:58.544Z,48.7
2023-06-05T22:54:58.386Z,49.1
2023-06-05T22:56:59.701Z,49.3
2023-06-05T22:58:58.396Z,50
2023-06-05T23:00:58.432Z,50.3
2023-06-05T23:02:59.580Z,50.5
2023-06-05T23:04:58.935Z,51.5
2023-06-05T23:06:58.741Z,50.9
2023-06-05T23:08:58.324Z,50.9
2023-06-05T23:10:58.490Z,51.3
2023-06-05T23:12:58.295Z,51.6
2023-06-05T23:14:58.522Z,51.3
2023-06-05T23:16:58.343Z,51.8
2023-06-05T23:18:58.335Z,51.6
2023-06-05T23:20:59.909Z,51.4
2023-06-05T23:22:58.317Z,52.1
2023-06-05T23:24:58.390Z,52.4
2023-06-05T23:26:58.364Z,52.7
2023-06-05T23:28:58.287Z,52.8
2023-06-05T23:30:58.346Z,53.9
2023-06-05T23:32:58.354Z,53.9
2023-06-05T23:34:58.495Z,54.7
2023-06-05T23:36:58.372Z,54.6
2023-06-05T23:38:58.311Z,54.5
2023-06-05T23:41:00.839Z,55.2
2023-06-05T23:42:58.282Z,54.8
2023-06-05T23:44:58.281Z,54.6
2023-06-05T23:46:58.356Z,55
2023-06-05T23:48:58.324Z,54.6
2023-06-05T23:51:05.966Z,55.1
2023-06-05T23:52:58.549Z,55.8
2023-06-05T23:54:58.306Z,55
2023-06-05T23:56:58.272Z,55.3
2023-06-05T23:58:58.348Z,55.6
